Atka, Alaska
Current Conditions -  °F | °C
As of 10:56 AM on Sunday 21 Dec 2014 (Local Time) from PAAK Reporting Station
Scattered Clouds Scattered Clouds  
Wind Chill: 27°   Ceiling: Unl
Heat Index: 37°   Visibility: 10mi
Dew Point: 28°   Wind: 18mph
Humidity: 70%   Direction: 320°NW
Pressure: 29.64"   Gusts: 22mph
Location:  52.19°N, 174.2°W
Report Text: PAAK 212056Z 32016G19KT 10SM SCT028 SCT036 03/M02 A2964 RMK AO1 52044
Loading
Personal Weather Stations






























Interactive Weather Map New forecast layout! Learn more

10-Day Weather Forecast

Advertisements
Track Severe Weather on mobile